Home PIREPS Pireps

Flight BEL5660

  • Submitted By: John Hewson
  • Departure Airport: Bruxelles National (EBBR)
  • Arrival Airport: Madrid / Barajas (LEMD)
  • Aircraft: A319-112 (OO-SSG)
  • Flight Time: 02.19
  • Date Submitted: 05/06/2015
  • Status: Accepted
Flight Details
Gross Revenue:
(122 load / € 178.00 per unit
€ 21,716.00
Fuel Cost:
(5680 fuel used @ 5.1 / unit)
€ 28,968.00

Additional Log Information:

View Log

Aircraft Used in flight is Airbus A319 Brussels Airlines OO-SSF
22:08 Brakes are On
22:09 Brakes are Released
22:14 You Took off @ 143 Knots and Flaps at Position 2
Departure Weather
EBBR 042050Z 09003KT CAVOK 19/10 Q1021 NOSIGrn
22:14 Landing Gear Up @ 157 Knots and 270 Feet
22:16 Below 10000 feet you are not allowed to go over 250 knots
22:17 Above FL100 you need to switch of the landing lights
22:30 Paused
22:30 Unpaused
23:19 Paused
07:45 Unpaused
08:33 You exceeded maximum bank angle
08:37 Landing Gear Down @ 153 Knots and 8950 Feet
08:47 You Landed @ 120 Knots and with -650 Vertical Speed
Arrival Weather
LEMD 050730Z 03003KT 350V080 CAVOK 22/05 Q1022 NOSIGrn
08:47 Your Landing was very hard
08:52 Brakes are On
08:52 Brussels Bel-Track1.0.0.9

Route Map

Corporate About Us Our Team Vacancies Information Fleet Route Network Rules and Regulations Operations Flight Schedules Event Center Tours Partners IVAO Vatsim Acars dev FSCB

fb Users Online No pilots online!
0 Pilot(s) and 144 Guest(s) Online
CMS by phpVMS - Design by Crazycreatives.com - Copyright © 2018 - Brussels Airlines Virtual